createdAt,value
2023-03-07T00:00:35.452Z,55.69
2023-03-07T00:03:04.034Z,57.08
2023-03-07T00:05:32.460Z,59.23
2023-03-07T00:08:03.960Z,57.59
2023-03-07T00:10:32.183Z,57.33
2023-03-07T00:13:00.646Z,54.99
2023-03-07T00:15:30.421Z,57.83
2023-03-07T00:17:58.342Z,56.67
2023-03-07T00:20:26.219Z,56.59
2023-03-07T00:22:54.320Z,56.25
2023-03-07T00:25:22.236Z,57.00
2023-03-07T00:27:50.037Z,56.41
2023-03-07T00:30:18.437Z,57.91
2023-03-07T00:32:47.699Z,58.38
2023-03-07T00:35:16.021Z,59.74
2023-03-07T00:37:43.992Z,59.08
2023-03-07T00:40:13.137Z,58.98
2023-03-07T00:42:41.014Z,58.50
2023-03-07T00:45:10.897Z,60.45
2023-03-07T00:47:39.007Z,59.43
2023-03-07T00:50:09.791Z,60.11
2023-03-07T00:52:37.952Z,58.38
2023-03-07T00:55:06.615Z,58.88
2023-03-07T00:57:34.595Z,59.29
2023-03-07T01:00:02.459Z,60.18
2023-03-07T01:02:30.399Z,60.36
2023-03-07T01:04:58.248Z,61.59
2023-03-07T01:07:27.587Z,59.46
2023-03-07T01:09:56.436Z,58.83
2023-03-07T01:12:24.441Z,58.87
2023-03-07T01:14:52.728Z,59.52
2023-03-07T01:17:20.722Z,61.15
2023-03-07T01:19:48.556Z,59.50
2023-03-07T01:22:16.489Z,61.26
2023-03-07T01:24:45.731Z,59.07
2023-03-07T01:27:14.728Z,59.21
2023-03-07T01:29:42.664Z,61.10
2023-03-07T01:32:10.930Z,60.95
2023-03-07T01:34:39.139Z,62.98
2023-03-07T01:37:07.071Z,61.52
2023-03-07T01:39:35.383Z,62.34
2023-03-07T01:42:08.680Z,61.69
2023-03-07T01:45:01.916Z,63.77
2023-03-07T01:47:39.690Z,62.97
2023-03-07T01:50:12.283Z,62.81
2023-03-07T01:52:43.285Z,61.17
2023-03-07T01:55:16.504Z,63.12
2023-03-07T01:57:50.699Z,63.00
2023-03-07T02:00:28.699Z,64.17
2023-03-07T02:03:03.710Z,64.74
2023-03-07T02:05:38.123Z,64.25
2023-03-07T02:08:10.059Z,66.90
2023-03-07T02:10:38.811Z,66.89
2023-03-07T02:13:08.592Z,66.89
2023-03-07T02:15:37.027Z,69.08
2023-03-07T02:18:06.409Z,68.30
2023-03-07T02:20:41.276Z,68.77
2023-03-07T02:23:20.436Z,68.95
2023-03-07T02:25:53.323Z,67.29
2023-03-07T02:28:22.984Z,66.98
2023-03-07T02:30:55.927Z,68.63
2023-03-07T02:33:25.800Z,67.93
2023-03-07T02:36:04.053Z,71.33
2023-03-07T02:38:37.854Z,69.98
2023-03-07T02:41:06.683Z,67.16
2023-03-07T02:43:37.746Z,68.37
2023-03-07T02:46:06.254Z,69.11
2023-03-07T02:48:34.152Z,68.22
2023-03-07T02:51:02.144Z,68.27
2023-03-07T02:53:30.421Z,66.37
2023-03-07T02:55:58.193Z,69.83
2023-03-07T02:58:26.736Z,68.02
2023-03-07T03:00:55.914Z,68.16
2023-03-07T03:03:23.769Z,65.71
2023-03-07T03:05:51.521Z,65.79
2023-03-07T03:08:20.165Z,66.04
2023-03-07T03:10:52.571Z,65.53
2023-03-07T03:13:21.176Z,64.94
2023-03-07T03:15:48.983Z,65.07
2023-03-07T03:18:18.193Z,64.98
2023-03-07T03:20:46.047Z,66.45
2023-03-07T03:23:13.821Z,66.59
2023-03-07T03:25:41.667Z,64.45
2023-03-07T03:28:09.990Z,65.69
2023-03-07T03:30:37.836Z,64.53
2023-03-07T03:33:05.959Z,64.35
2023-03-07T03:35:38.430Z,65.82
2023-03-07T03:38:06.672Z,65.18
2023-03-07T03:40:34.455Z,65.01
2023-03-07T03:43:02.375Z,64.57
2023-03-07T03:45:30.278Z,64.42
2023-03-07T03:47:58.019Z,63.79
2023-03-07T03:50:25.871Z,63.81
2023-03-07T03:52:54.959Z,64.17
2023-03-07T03:55:22.835Z,64.33
2023-03-07T03:57:50.714Z,63.72
2023-03-07T04:00:21.110Z,63.67
2023-03-07T04:02:49.588Z,63.69
2023-03-07T04:05:19.107Z,63.22
2023-03-07T04:07:47.019Z,63.07
2023-03-07T04:10:16.519Z,62.02
2023-03-07T04:12:44.553Z,61.63
2023-03-07T04:15:12.845Z,63.01
2023-03-07T04:17:40.649Z,63.71
2023-03-07T04:20:14.694Z,63.95
2023-03-07T04:22:42.522Z,63.91
2023-03-07T04:25:12.479Z,63.26
2023-03-07T04:27:43.107Z,62.56
2023-03-07T04:30:13.450Z,63.41
2023-03-07T04:32:42.438Z,63.04
2023-03-07T04:35:10.679Z,62.39
2023-03-07T04:37:38.461Z,62.53
2023-03-07T04:40:07.670Z,61.66
2023-03-07T04:42:35.733Z,62.00
2023-03-07T04:45:04.897Z,61.59
2023-03-07T04:47:34.052Z,62.09
2023-03-07T04:50:03.790Z,63.56
2023-03-07T04:52:33.457Z,62.98
2023-03-07T04:55:01.787Z,63.64
2023-03-07T04:57:29.737Z,62.52
2023-03-07T04:59:57.678Z,62.89
2023-03-07T05:02:25.461Z,61.83
2023-03-07T05:04:55.092Z,61.50
2023-03-07T05:07:23.735Z,62.11
2023-03-07T05:09:52.641Z,63.55
2023-03-07T05:12:20.788Z,64.06
2023-03-07T05:14:48.554Z,63.80
2023-03-07T05:17:16.913Z,64.63
2023-03-07T05:19:44.924Z,78.06
2023-03-07T05:22:14.373Z,87.29
2023-03-07T05:24:44.314Z,79.28
2023-03-07T05:27:12.122Z,74.69
2023-03-07T05:29:39.946Z,74.49
2023-03-07T05:32:08.215Z,74.98
2023-03-07T05:34:38.020Z,74.94
2023-03-07T05:37:05.942Z,75.15
2023-03-07T05:39:35.338Z,74.06
2023-03-07T05:42:03.069Z,73.42
2023-03-07T05:44:33.761Z,74.81
2023-03-07T05:47:02.590Z,73.73
2023-03-07T05:49:30.821Z,73.18
2023-03-07T05:51:58.648Z,71.67
2023-03-07T05:54:27.079Z,73.15
2023-03-07T05:56:56.426Z,72.09
2023-03-07T05:59:24.298Z,71.06
2023-03-07T06:01:53.456Z,71.71
2023-03-07T06:04:21.414Z,69.89
2023-03-07T06:06:49.199Z,70.82
2023-03-07T06:09:17.144Z,70.06
2023-03-07T06:11:44.982Z,68.45
2023-03-07T06:14:14.234Z,66.46
2023-03-07T06:16:42.101Z,67.01
2023-03-07T06:19:09.995Z,67.02
2023-03-07T06:21:38.421Z,66.00
2023-03-07T06:24:07.700Z,67.03
2023-03-07T06:26:35.977Z,65.52
2023-03-07T06:29:05.267Z,67.61
2023-03-07T06:31:34.873Z,66.25
2023-03-07T06:34:02.788Z,66.54
2023-03-07T06:36:30.789Z,65.30
2023-03-07T06:39:01.791Z,64.63
2023-03-07T06:41:30.053Z,64.83
2023-03-07T06:44:00.248Z,64.52
2023-03-07T06:46:31.704Z,63.28
2023-03-07T06:49:04.377Z,62.85
2023-03-07T06:51:32.454Z,63.08
2023-03-07T06:54:01.298Z,62.09
2023-03-07T06:56:31.242Z,61.16
2023-03-07T06:59:00.109Z,60.64
2023-03-07T07:01:28.008Z,60.34
2023-03-07T07:03:58.204Z,59.63
2023-03-07T07:06:27.914Z,58.77
2023-03-07T07:08:57.156Z,58.96
2023-03-07T07:11:27.994Z,58.58
2023-03-07T07:13:56.648Z,59.48
2023-03-07T07:16:25.266Z,58.81
2023-03-07T07:18:53.499Z,58.59
2023-03-07T07:21:22.308Z,59.21
2023-03-07T07:23:51.816Z,59.23
2023-03-07T07:26:19.954Z,57.74
2023-03-07T07:28:47.947Z,57.45
2023-03-07T07:31:15.888Z,57.79
2023-03-07T07:33:46.480Z,58.00
2023-03-07T07:36:16.496Z,58.36
2023-03-07T07:38:45.327Z,57.31
2023-03-07T07:41:15.286Z,55.91
2023-03-07T07:43:46.894Z,55.91
2023-03-07T07:46:30.378Z,57.05
2023-03-07T07:49:07.858Z,57.30
2023-03-07T07:51:35.733Z,55.22
2023-03-07T07:54:03.724Z,57.35
2023-03-07T07:56:34.402Z,57.76
2023-03-07T07:59:02.434Z,59.30
2023-03-07T08:01:30.589Z,58.98
2023-03-07T08:03:58.476Z,58.75
2023-03-07T08:06:30.825Z,60.40
2023-03-07T08:09:00.053Z,58.98
2023-03-07T08:11:28.293Z,57.72
2023-03-07T08:13:57.692Z,57.83
2023-03-07T08:16:26.105Z,57.10
2023-03-07T08:18:55.884Z,57.23
2023-03-07T08:21:24.445Z,56.83
2023-03-07T08:23:52.467Z,58.12
2023-03-07T08:26:20.528Z,58.27
2023-03-07T08:28:49.345Z,59.75
2023-03-07T08:31:23.641Z,57.61
2023-03-07T08:33:58.930Z,58.45
2023-03-07T08:36:27.078Z,57.02
2023-03-07T08:38:55.044Z,57.51
2023-03-07T08:41:23.849Z,58.04
2023-03-07T08:43:51.973Z,58.49
2023-03-07T08:46:21.618Z,57.29
2023-03-07T08:48:49.445Z,57.26
2023-03-07T08:51:18.752Z,56.55
2023-03-07T08:53:47.525Z,55.93
2023-03-07T08:56:17.141Z,56.97
2023-03-07T08:58:45.505Z,59.23
2023-03-07T09:01:13.895Z,59.86
2023-03-07T09:03:44.750Z,59.64
2023-03-07T09:06:22.093Z,60.04
2023-03-07T09:09:02.296Z,62.57
2023-03-07T09:11:36.562Z,61.17
2023-03-07T09:14:04.665Z,64.11
2023-03-07T09:16:36.907Z,62.41
2023-03-07T09:19:06.847Z,62.69
2023-03-07T09:21:34.816Z,62.95
2023-03-07T09:24:05.692Z,63.88
2023-03-07T09:26:33.529Z,61.98
2023-03-07T09:29:01.729Z,61.97
2023-03-07T09:31:29.547Z,62.77
2023-03-07T09:33:58.258Z,64.53
2023-03-07T09:36:27.498Z,63.15
2023-03-07T09:38:58.020Z,64.62
2023-03-07T09:41:51.143Z,63.35
2023-03-07T09:44:32.060Z,64.40
2023-03-07T09:47:39.220Z,64.53
2023-03-07T09:50:14.754Z,64.52
2023-03-07T09:52:44.579Z,67.53
2023-03-07T09:55:16.781Z,68.76
2023-03-07T09:57:50.533Z,66.45
2023-03-07T10:00:25.329Z,67.47
2023-03-07T10:02:58.125Z,65.85
2023-03-07T10:05:32.717Z,67.47
2023-03-07T10:08:05.080Z,66.27
2023-03-07T10:10:39.716Z,66.75
2023-03-07T10:13:21.037Z,65.64
2023-03-07T10:15:51.658Z,65.75
2023-03-07T10:18:31.441Z,65.79
2023-03-07T10:21:07.440Z,65.32
2023-03-07T10:24:01.606Z,64.82
2023-03-07T10:26:33.851Z,65.80
2023-03-07T10:29:13.306Z,65.11
2023-03-07T10:31:44.994Z,64.03
2023-03-07T10:34:26.727Z,63.10
2023-03-07T10:37:08.491Z,65.42
2023-03-07T10:39:44.262Z,66.70
2023-03-07T10:42:14.576Z,65.84
2023-03-07T10:44:45.259Z,66.90
2023-03-07T10:47:21.117Z,66.95
2023-03-07T10:49:52.783Z,67.66
2023-03-07T10:52:33.264Z,66.23
2023-03-07T10:55:35.469Z,65.69
2023-03-07T10:58:21.234Z,64.56
2023-03-07T11:01:15.080Z,65.19
2023-03-07T11:03:56.883Z,64.58
2023-03-07T11:06:39.165Z,65.76
2023-03-07T11:09:27.103Z,63.56
2023-03-07T11:11:59.079Z,61.71
2023-03-07T11:14:28.967Z,61.02
2023-03-07T11:16:59.571Z,64.58
2023-03-07T11:19:37.862Z,64.41
2023-03-07T11:22:18.166Z,63.26
2023-03-07T11:24:52.611Z,63.54
2023-03-07T11:27:25.714Z,62.45
2023-03-07T11:30:25.263Z,63.32
2023-03-07T11:33:08.919Z,62.64
2023-03-07T11:35:52.407Z,62.95
2023-03-07T11:38:43.905Z,64.12
2023-03-07T11:41:17.669Z,62.85
2023-03-07T11:43:58.036Z,63.60
2023-03-07T11:46:40.936Z,63.15
2023-03-07T11:49:25.711Z,62.25
2023-03-07T11:55:12.407Z,61.52
2023-03-07T11:57:58.477Z,61.41
2023-03-07T12:00:33.472Z,61.54
2023-03-07T12:03:21.545Z,61.22
2023-03-07T12:06:12.742Z,60.78
2023-03-07T12:08:57.711Z,60.00
2023-03-07T12:11:43.015Z,60.50
2023-03-07T12:14:24.017Z,60.07
2023-03-07T12:17:04.122Z,59.22
2023-03-07T12:20:05.449Z,57.88
2023-03-07T12:22:41.860Z,57.63
2023-03-07T12:25:22.380Z,56.66
2023-03-07T12:28:02.137Z,57.09
2023-03-07T12:30:39.466Z,55.03
2023-03-07T12:33:20.066Z,55.26
2023-03-07T12:35:51.324Z,55.53
2023-03-07T12:38:27.291Z,53.88
2023-03-07T12:40:59.600Z,52.92
2023-03-07T12:43:33.292Z,54.39
2023-03-07T12:46:10.399Z,53.81
2023-03-07T12:48:49.879Z,53.82
2023-03-07T12:51:25.113Z,54.67
2023-03-07T12:53:59.612Z,54.46
2023-03-07T12:56:34.046Z,54.67
2023-03-07T12:59:07.586Z,55.18
2023-03-07T13:01:38.265Z,54.95
2023-03-07T13:04:15.026Z,55.34
2023-03-07T13:06:44.615Z,56.20
2023-03-07T13:09:19.903Z,56.36
2023-03-07T13:12:24.033Z,53.39
2023-03-07T13:14:53.270Z,55.63
2023-03-07T13:18:00.610Z,55.28
2023-03-07T13:20:46.207Z,55.22
2023-03-07T13:23:24.509Z,55.95
2023-03-07T13:26:14.052Z,56.12
2023-03-07T13:28:51.996Z,55.91
2023-03-07T13:31:43.743Z,56.75
2023-03-07T13:34:51.428Z,67.00
2023-03-07T13:37:55.004Z,69.68
2023-03-07T13:40:55.390Z,68.19
2023-03-07T13:43:57.117Z,74.36
2023-03-07T13:47:01.454Z,74.54
2023-03-07T13:49:44.016Z,73.57
2023-03-07T13:52:37.649Z,75.91
2023-03-07T13:55:24.167Z,75.38
2023-03-07T13:57:52.318Z,74.78
2023-03-07T14:00:26.791Z,73.63
2023-03-07T14:02:55.904Z,77.29
2023-03-07T14:05:24.125Z,58.09
2023-03-07T14:07:57.772Z,59.69
2023-03-07T14:10:29.143Z,60.01
2023-03-07T14:13:28.556Z,62.10
2023-03-07T14:16:16.733Z,63.16
2023-03-07T14:18:58.722Z,65.80
2023-03-07T14:21:34.778Z,65.91
2023-03-07T14:24:39.289Z,65.63
2023-03-07T14:27:14.246Z,65.88
2023-03-07T14:29:50.898Z,65.95
2023-03-07T14:32:24.497Z,65.02
2023-03-07T14:34:53.880Z,64.90
2023-03-07T14:37:26.272Z,63.76
2023-03-07T14:40:14.865Z,63.26
2023-03-07T14:42:52.997Z,64.03
2023-03-07T14:45:30.719Z,62.08
2023-03-07T14:48:35.688Z,61.86
2023-03-07T14:51:14.179Z,62.56
2023-03-07T14:53:42.972Z,62.91
2023-03-07T14:56:12.163Z,61.94
2023-03-07T14:58:50.927Z,61.97
2023-03-07T15:01:23.740Z,62.31
2023-03-07T15:03:53.546Z,62.53
2023-03-07T15:06:24.694Z,61.04
2023-03-07T15:08:53.315Z,61.98
2023-03-07T15:11:30.542Z,61.37
2023-03-07T15:14:02.920Z,61.46
2023-03-07T15:16:35.601Z,61.26
2023-03-07T15:19:10.371Z,62.16
2023-03-07T15:21:41.579Z,61.07
2023-03-07T15:24:21.183Z,61.58
2023-03-07T15:26:51.114Z,61.26
2023-03-07T15:29:23.086Z,60.49
2023-03-07T15:31:54.883Z,61.03
2023-03-07T15:34:26.806Z,61.45
2023-03-07T15:36:55.675Z,60.80
2023-03-07T15:39:29.194Z,62.21
2023-03-07T15:42:02.950Z,62.59
2023-03-07T15:44:33.173Z,61.16
2023-03-07T15:47:06.386Z,61.62
2023-03-07T15:49:41.949Z,60.24
2023-03-07T15:52:22.324Z,60.71
2023-03-07T15:54:53.182Z,60.86
2023-03-07T15:57:23.506Z,61.08
2023-03-07T15:59:58.808Z,59.65
2023-03-07T16:02:46.372Z,59.96
2023-03-07T16:05:38.485Z,58.59
2023-03-07T16:08:15.865Z,59.26
2023-03-07T16:10:52.396Z,59.69
2023-03-07T16:13:23.351Z,58.88
2023-03-07T16:16:06.145Z,58.97
2023-03-07T16:18:35.044Z,58.78
2023-03-07T16:21:03.788Z,58.17
2023-03-07T16:23:34.922Z,57.23
2023-03-07T16:26:06.210Z,57.03
2023-03-07T16:28:35.065Z,57.25
2023-03-07T16:31:04.671Z,57.85
2023-03-07T16:33:32.934Z,55.85
2023-03-07T16:36:01.204Z,55.79
2023-03-07T16:38:29.770Z,55.13
2023-03-07T16:40:58.901Z,53.90
2023-03-07T16:43:34.544Z,54.57
2023-03-07T16:46:06.994Z,53.94
2023-03-07T16:48:35.472Z,55.66
2023-03-07T16:51:05.269Z,55.44
2023-03-07T16:53:33.282Z,56.30
2023-03-07T16:56:01.442Z,55.83
2023-03-07T16:58:33.571Z,56.03
2023-03-07T17:01:02.076Z,54.88
2023-03-07T17:03:31.615Z,53.86
2023-03-07T17:06:00.411Z,53.88
2023-03-07T17:08:28.466Z,53.75
2023-03-07T17:10:57.346Z,54.23
2023-03-07T17:13:25.270Z,56.16
2023-03-07T17:15:53.220Z,54.37
2023-03-07T17:18:22.354Z,54.02
2023-03-07T17:20:52.098Z,54.23
2023-03-07T17:23:22.241Z,54.93
2023-03-07T17:25:50.281Z,56.98
2023-03-07T17:28:20.337Z,56.71
2023-03-07T17:30:49.750Z,58.21
2023-03-07T17:33:17.829Z,58.02
2023-03-07T17:35:45.825Z,59.57
2023-03-07T17:38:15.024Z,58.92
2023-03-07T17:40:44.035Z,57.59
2023-03-07T17:43:12.594Z,56.84
2023-03-07T17:45:40.621Z,56.88
2023-03-07T17:48:08.865Z,56.30
2023-03-07T17:50:36.767Z,57.07
2023-03-07T17:53:04.733Z,57.36
2023-03-07T17:55:34.319Z,57.87
2023-03-07T17:58:02.282Z,57.84
2023-03-07T18:00:30.303Z,55.69
2023-03-07T18:02:58.255Z,56.18
2023-03-07T18:05:27.971Z,55.81
2023-03-07T18:07:56.896Z,57.18
2023-03-07T18:10:25.328Z,57.13
2023-03-07T18:12:54.695Z,56.60
2023-03-07T18:15:23.155Z,56.53
2023-03-07T18:17:51.877Z,57.63
2023-03-07T18:20:21.436Z,56.99
2023-03-07T18:22:49.699Z,57.90
2023-03-07T18:25:18.649Z,56.66
2023-03-07T18:27:47.189Z,56.26
2023-03-07T18:30:17.650Z,55.73
2023-03-07T18:32:45.782Z,57.42
2023-03-07T18:35:15.491Z,56.83
2023-03-07T18:37:45.245Z,56.60
2023-03-07T18:40:14.184Z,56.21
2023-03-07T18:42:43.361Z,56.90
2023-03-07T18:45:12.176Z,56.40
2023-03-07T18:47:41.582Z,56.60
2023-03-07T18:50:11.143Z,56.43
2023-03-07T18:52:39.019Z,56.59
2023-03-07T18:55:07.338Z,56.57
2023-03-07T18:57:35.289Z,57.08
2023-03-07T19:00:03.952Z,56.28
2023-03-07T19:02:31.937Z,56.34
2023-03-07T19:05:01.386Z,57.02
2023-03-07T19:07:31.204Z,55.52
2023-03-07T19:09:59.089Z,56.03
2023-03-07T19:12:26.926Z,57.15
2023-03-07T19:14:54.722Z,55.73
2023-03-07T19:17:22.490Z,55.29
2023-03-07T19:19:52.907Z,55.45
2023-03-07T19:22:25.831Z,54.97
2023-03-07T19:24:54.901Z,55.46
2023-03-07T19:27:22.748Z,54.94
2023-03-07T19:29:50.685Z,55.59
2023-03-07T19:32:19.010Z,54.67
2023-03-07T19:34:49.657Z,56.38
2023-03-07T19:37:17.918Z,57.63
2023-03-07T19:39:47.433Z,56.51
2023-03-07T19:42:15.302Z,56.02
2023-03-07T19:44:43.536Z,56.65
2023-03-07T19:47:11.781Z,59.43
2023-03-07T19:49:39.733Z,59.89
2023-03-07T19:52:07.772Z,59.48
2023-03-07T19:54:35.740Z,57.71
2023-03-07T19:57:05.504Z,58.72
2023-03-07T19:59:33.577Z,58.65
2023-03-07T20:02:01.604Z,57.38
2023-03-07T20:04:29.592Z,58.43
2023-03-07T20:06:57.772Z,58.07
2023-03-07T20:09:28.873Z,58.61
2023-03-07T20:11:57.312Z,57.99
2023-03-07T20:14:28.239Z,57.82
2023-03-07T20:17:07.190Z,57.64
2023-03-07T20:19:35.462Z,58.25
2023-03-07T20:22:04.879Z,58.67
2023-03-07T20:24:33.168Z,59.92
2023-03-07T20:27:01.520Z,59.12
2023-03-07T20:29:31.061Z,59.26
2023-03-07T20:31:59.121Z,59.26
2023-03-07T20:34:27.086Z,59.47
2023-03-07T20:36:56.841Z,58.48
2023-03-07T20:39:25.337Z,59.11
2023-03-07T20:41:53.378Z,59.76
2023-03-07T20:44:21.717Z,58.82
2023-03-07T20:46:51.024Z,59.58
2023-03-07T20:49:19.226Z,60.89
2023-03-07T20:51:48.724Z,59.43
2023-03-07T20:54:18.426Z,59.46
2023-03-07T20:56:47.969Z,59.50
2023-03-07T20:59:20.289Z,60.14
2023-03-07T21:01:48.823Z,61.25
2023-03-07T21:04:21.167Z,60.41
2023-03-07T21:06:50.509Z,60.92
2023-03-07T21:09:20.069Z,60.53
2023-03-07T21:11:50.130Z,61.54
2023-03-07T21:14:19.623Z,60.61
2023-03-07T21:16:47.882Z,60.75
2023-03-07T21:19:16.371Z,61.15
2023-03-07T21:21:45.770Z,61.49
2023-03-07T21:24:15.407Z,61.48
2023-03-07T21:26:43.352Z,60.56
2023-03-07T21:29:13.235Z,62.31
2023-03-07T21:31:41.228Z,62.59
2023-03-07T21:34:13.132Z,62.77
2023-03-07T21:36:41.148Z,62.69
2023-03-07T21:39:12.603Z,62.81
2023-03-07T21:41:41.503Z,62.75
2023-03-07T21:44:10.671Z,62.75
2023-03-07T21:46:38.655Z,63.94
2023-03-07T21:49:07.572Z,62.60
2023-03-07T21:51:36.295Z,61.56
2023-03-07T21:54:05.339Z,62.31
2023-03-07T21:56:35.269Z,61.87
2023-03-07T21:59:03.540Z,62.70
2023-03-07T22:01:31.644Z,62.21
2023-03-07T22:04:00.841Z,62.51
2023-03-07T22:06:29.580Z,62.09
2023-03-07T22:08:59.320Z,62.25
2023-03-07T22:11:27.662Z,61.93
2023-03-07T22:13:57.367Z,61.38
2023-03-07T22:16:25.573Z,62.00
2023-03-07T22:18:54.966Z,62.65
2023-03-07T22:21:25.002Z,62.25
2023-03-07T22:23:57.548Z,60.46
2023-03-07T22:26:25.882Z,61.25
2023-03-07T22:28:54.822Z,60.37
2023-03-07T22:31:24.752Z,60.48
2023-03-07T22:33:54.142Z,61.08
2023-03-07T22:36:22.625Z,61.07
2023-03-07T22:38:55.147Z,60.49
2023-03-07T22:41:24.370Z,59.56
2023-03-07T22:43:52.538Z,60.67
2023-03-07T22:46:20.685Z,61.25
2023-03-07T22:48:53.380Z,61.05
2023-03-07T22:51:21.428Z,61.32
2023-03-07T22:53:51.516Z,61.30
2023-03-07T22:56:22.363Z,61.89
2023-03-07T22:58:50.939Z,62.06
2023-03-07T23:01:21.312Z,63.20
2023-03-07T23:03:52.510Z,63.35
2023-03-07T23:06:21.916Z,62.17
2023-03-07T23:08:51.777Z,63.03
2023-03-07T23:11:22.565Z,63.63
2023-03-07T23:13:50.940Z,63.90
2023-03-07T23:16:21.178Z,62.39
2023-03-07T23:18:51.826Z,62.11
2023-03-07T23:21:23.401Z,62.10
2023-03-07T23:23:57.029Z,61.95
2023-03-07T23:26:27.623Z,62.19
2023-03-07T23:28:57.378Z,61.77
2023-03-07T23:31:27.448Z,62.49
2023-03-07T23:33:58.355Z,61.73
2023-03-07T23:36:31.292Z,62.64
2023-03-07T23:39:00.308Z,61.66
2023-03-07T23:41:28.895Z,61.64
2023-03-07T23:44:01.309Z,62.13
2023-03-07T23:46:31.242Z,61.20
2023-03-07T23:49:02.450Z,61.83
2023-03-07T23:51:30.517Z,60.77
2023-03-07T23:53:58.592Z,59.93
2023-03-07T23:56:26.550Z,60.16
2023-03-07T23:58:55.100Z,59.82
